createdAt,value
2023-06-19T00:00:46.968Z,39.40
2023-06-19T00:03:15.237Z,39.40
2023-06-19T00:05:44.845Z,39.40
2023-06-19T00:08:12.864Z,39.50
2023-06-19T00:10:41.086Z,39.50
2023-06-19T00:13:09.311Z,39.50
2023-06-19T00:15:37.522Z,39.60
2023-06-19T00:18:08.111Z,39.70
2023-06-19T00:20:37.423Z,39.70
2023-06-19T00:23:11.854Z,39.70
2023-06-19T00:25:40.122Z,39.80
2023-06-19T00:28:14.512Z,39.90
2023-06-19T00:30:42.882Z,39.90
2023-06-19T00:33:11.110Z,40.00
2023-06-19T00:35:39.418Z,40.00
2023-06-19T00:38:10.718Z,40.10
2023-06-19T00:40:38.981Z,40.20
2023-06-19T00:43:09.207Z,40.20
2023-06-19T00:45:38.263Z,40.20
2023-06-19T00:48:07.141Z,40.40
2023-06-19T00:50:35.761Z,40.50
2023-06-19T00:53:05.810Z,40.50
2023-06-19T00:55:36.261Z,40.60
2023-06-19T00:58:05.028Z,40.60
2023-06-19T01:00:33.231Z,40.60
2023-06-19T01:03:01.777Z,40.70
2023-06-19T01:05:30.079Z,40.60
2023-06-19T01:08:02.985Z,40.70
2023-06-19T01:10:37.476Z,40.80
2023-06-19T01:13:12.872Z,40.90
2023-06-19T01:15:42.128Z,40.90
2023-06-19T01:18:12.594Z,40.90
2023-06-19T01:20:41.303Z,41.10
2023-06-19T01:23:12.400Z,41.00
2023-06-19T01:25:41.131Z,41.10
2023-06-19T01:29:13.457Z,41.10
2023-06-19T01:31:48.050Z,41.20
2023-06-19T01:34:19.577Z,41.20
2023-06-19T01:36:50.223Z,41.40
2023-06-19T01:39:22.086Z,41.30
2023-06-19T01:41:51.067Z,41.40
2023-06-19T01:44:19.354Z,41.40
2023-06-19T01:46:50.594Z,41.40
2023-06-19T01:49:19.153Z,41.50
2023-06-19T01:51:47.417Z,41.70
2023-06-19T01:54:15.613Z,41.80
2023-06-19T01:56:45.735Z,41.70
2023-06-19T01:59:13.929Z,41.70
2023-06-19T02:01:42.079Z,41.70
2023-06-19T02:04:10.335Z,41.80
2023-06-19T02:06:38.531Z,41.70
2023-06-19T02:09:06.948Z,41.90
2023-06-19T02:11:35.092Z,41.90
2023-06-19T02:14:04.677Z,41.90
2023-06-19T02:16:32.686Z,42.00
2023-06-19T02:19:01.502Z,42.00
2023-06-19T02:21:30.412Z,42.10
2023-06-19T02:23:59.250Z,42.10
2023-06-19T02:26:29.983Z,42.20
2023-06-19T02:28:58.382Z,42.30
2023-06-19T02:31:27.997Z,43.10
2023-06-19T02:33:55.980Z,42.50
2023-06-19T02:36:24.218Z,42.60
2023-06-19T02:38:52.406Z,42.50
2023-06-19T02:41:20.691Z,42.70
2023-06-19T02:43:49.804Z,42.70
2023-06-19T02:46:18.255Z,42.90
2023-06-19T02:48:47.864Z,42.80
2023-06-19T02:51:15.906Z,42.90
2023-06-19T02:53:45.006Z,42.90
2023-06-19T02:56:13.855Z,43.00
2023-06-19T02:58:42.821Z,43.10
2023-06-19T03:01:11.063Z,43.20
2023-06-19T03:03:39.489Z,43.20
2023-06-19T03:06:10.050Z,43.10
2023-06-19T03:08:38.480Z,43.20
2023-06-19T03:11:06.673Z,43.30
2023-06-19T03:13:45.965Z,43.20
2023-06-19T03:16:14.228Z,43.20
2023-06-19T03:18:42.532Z,43.30
2023-06-19T03:21:12.118Z,43.30
2023-06-19T03:23:40.115Z,43.30
2023-06-19T03:26:08.296Z,43.20
2023-06-19T03:28:36.719Z,43.10
2023-06-19T03:31:04.984Z,43.20
2023-06-19T03:33:33.175Z,43.30
2023-06-19T03:36:01.357Z,43.40
2023-06-19T03:38:31.007Z,43.40
2023-06-19T03:40:59.203Z,43.30
2023-06-19T03:43:27.366Z,43.40
2023-06-19T03:45:55.621Z,43.30
2023-06-19T03:48:23.787Z,43.30
2023-06-19T03:50:51.981Z,43.30
2023-06-19T03:53:20.152Z,43.30
2023-06-19T03:55:49.785Z,43.30
2023-06-19T03:58:17.782Z,43.30
2023-06-19T04:00:45.997Z,43.40
2023-06-19T04:03:14.249Z,43.30
2023-06-19T04:05:43.449Z,43.30
2023-06-19T04:08:11.609Z,43.50
2023-06-19T04:10:39.843Z,43.40
2023-06-19T04:13:09.445Z,43.40
2023-06-19T04:15:38.669Z,43.40
2023-06-19T04:18:07.095Z,43.30
2023-06-19T04:20:35.656Z,43.20
2023-06-19T04:23:03.861Z,43.40
2023-06-19T04:25:32.045Z,43.40
2023-06-19T04:28:00.218Z,43.40
2023-06-19T04:30:29.889Z,43.40
2023-06-19T04:32:58.312Z,43.40
2023-06-19T04:35:26.554Z,43.50
2023-06-19T04:37:55.975Z,43.60
2023-06-19T04:40:24.793Z,43.60
2023-06-19T04:42:55.015Z,43.60
2023-06-19T04:45:23.201Z,43.60
2023-06-19T04:47:54.370Z,43.60
2023-06-19T04:50:23.652Z,43.80
2023-06-19T04:52:53.001Z,43.90
2023-06-19T04:55:21.368Z,43.90
2023-06-19T04:57:49.586Z,44.20
2023-06-19T05:00:20.560Z,44.50
2023-06-19T05:02:49.387Z,44.60
2023-06-19T05:05:20.898Z,44.70
2023-06-19T05:07:52.075Z,44.70
2023-06-19T05:10:20.543Z,45.00
2023-06-19T05:12:48.977Z,45.70
2023-06-19T05:15:17.237Z,45.20
2023-06-19T05:17:47.540Z,45.60
2023-06-19T05:20:16.513Z,45.50
2023-06-19T05:22:46.298Z,45.70
2023-06-19T05:25:14.549Z,45.90
2023-06-19T05:27:42.747Z,45.90
2023-06-19T05:30:11.990Z,45.90
2023-06-19T05:32:40.463Z,46.30
2023-06-19T05:35:09.347Z,46.20
2023-06-19T05:37:39.077Z,46.40
2023-06-19T05:40:10.907Z,46.40
2023-06-19T05:42:39.255Z,46.60
2023-06-19T05:45:08.329Z,46.70
2023-06-19T05:47:36.583Z,46.90
2023-06-19T05:50:05.581Z,47.10
2023-06-19T05:52:33.788Z,47.10
2023-06-19T05:55:02.028Z,47.20
2023-06-19T05:57:31.614Z,47.50
2023-06-19T05:59:59.577Z,47.80
2023-06-19T06:02:29.765Z,47.80
2023-06-19T06:04:58.493Z,47.60
2023-06-19T06:07:28.816Z,47.90
2023-06-19T06:09:57.048Z,47.90
2023-06-19T06:12:25.235Z,48.00
2023-06-19T06:14:54.846Z,48.00
2023-06-19T06:17:22.854Z,48.20
2023-06-19T06:19:51.068Z,48.10
2023-06-19T06:22:19.721Z,48.20
2023-06-19T06:24:48.312Z,48.20
2023-06-19T06:27:16.488Z,48.20
2023-06-19T06:29:44.710Z,48.00
2023-06-19T06:32:14.249Z,48.30
2023-06-19T06:34:42.206Z,48.10
2023-06-19T06:37:10.384Z,48.20
2023-06-19T06:39:39.811Z,48.20
2023-06-19T06:42:08.420Z,48.20
2023-06-19T06:44:37.681Z,48.20
2023-06-19T06:47:06.236Z,48.00
2023-06-19T06:49:37.445Z,47.80
2023-06-19T06:52:06.136Z,47.80
2023-06-19T06:54:34.384Z,48.10
2023-06-19T06:57:02.607Z,47.80
2023-06-19T06:59:30.791Z,47.50
2023-06-19T07:01:59.041Z,47.90
2023-06-19T07:04:27.528Z,47.50
2023-06-19T07:06:57.154Z,47.30
2023-06-19T07:09:25.327Z,47.30
2023-06-19T07:11:54.100Z,46.90
2023-06-19T07:14:22.772Z,46.30
2023-06-19T07:16:51.777Z,46.20
2023-06-19T07:19:20.076Z,45.30
2023-06-19T07:21:48.442Z,45.40
2023-06-19T07:24:18.126Z,44.80
2023-06-19T07:26:48.384Z,44.70
2023-06-19T07:29:16.704Z,45.00
2023-06-19T07:31:45.075Z,44.90
2023-06-19T07:34:13.290Z,44.90
2023-06-19T07:36:41.470Z,44.20
2023-06-19T07:39:09.659Z,43.60
2023-06-19T07:41:39.568Z,42.50
2023-06-19T07:44:07.843Z,42.70
2023-06-19T07:46:36.063Z,42.60
2023-06-19T07:49:04.357Z,42.40
2023-06-19T07:51:32.831Z,42.30
2023-06-19T07:54:01.015Z,42.30
2023-06-19T07:56:29.636Z,42.40
2023-06-19T07:58:59.236Z,42.30
2023-06-19T08:01:27.445Z,41.60
2023-06-19T08:03:55.682Z,41.40
2023-06-19T08:06:23.894Z,41.60
2023-06-19T08:08:52.763Z,41.40
2023-06-19T08:11:20.716Z,41.40
2023-06-19T08:13:48.921Z,41.90
2023-06-19T08:16:19.157Z,41.90
2023-06-19T08:18:47.550Z,42.00
2023-06-19T08:21:16.223Z,42.70
2023-06-19T08:23:45.158Z,42.70
2023-06-19T08:26:13.456Z,42.40
2023-06-19T08:28:42.661Z,43.10
2023-06-19T08:31:11.250Z,43.00
2023-06-19T08:33:40.837Z,43.10
2023-06-19T08:36:09.098Z,42.70
2023-06-19T08:38:37.275Z,42.60
2023-06-19T08:41:05.974Z,43.00
2023-06-19T08:43:34.185Z,43.10
2023-06-19T08:46:11.990Z,43.20
2023-06-19T08:48:42.327Z,43.20
2023-06-19T08:51:12.671Z,43.50
2023-06-19T08:53:47.848Z,43.10
2023-06-19T08:56:16.216Z,43.10
2023-06-19T08:58:44.443Z,43.20
2023-06-19T09:01:14.428Z,43.50
2023-06-19T09:03:45.500Z,43.20
2023-06-19T09:06:16.467Z,43.50
2023-06-19T09:08:44.784Z,43.70
2023-06-19T09:11:14.305Z,43.80
2023-06-19T09:13:42.273Z,43.70
2023-06-19T09:16:11.032Z,43.80
2023-06-19T09:18:48.440Z,43.70
2023-06-19T09:21:20.239Z,44.20
2023-06-19T09:23:48.964Z,44.50
2023-06-19T09:26:18.936Z,43.90
2023-06-19T09:28:47.506Z,43.80
2023-06-19T09:31:15.710Z,43.60
2023-06-19T09:33:44.884Z,43.70
2023-06-19T09:36:15.315Z,44.40
2023-06-19T09:38:43.483Z,44.30
2023-06-19T09:41:12.125Z,44.30
2023-06-19T09:43:42.945Z,44.60
2023-06-19T09:46:12.787Z,44.30
2023-06-19T09:48:45.446Z,44.10
2023-06-19T09:51:21.608Z,43.90
2023-06-19T09:53:50.977Z,43.70
2023-06-19T09:56:23.240Z,43.00
2023-06-19T09:58:54.578Z,42.80
2023-06-19T10:01:23.200Z,42.90
2023-06-19T10:03:52.021Z,43.00
2023-06-19T10:06:25.048Z,43.40
2023-06-19T10:08:53.728Z,43.30
2023-06-19T10:11:21.916Z,43.30
2023-06-19T10:13:50.144Z,43.50
2023-06-19T10:16:27.285Z,43.40
2023-06-19T10:18:57.464Z,43.70
2023-06-19T10:21:27.035Z,43.80
2023-06-19T10:23:59.820Z,42.90
2023-06-19T10:26:35.456Z,42.30
2023-06-19T10:29:05.509Z,42.40
2023-06-19T10:31:33.669Z,42.30
2023-06-19T10:34:02.001Z,42.80
2023-06-19T10:36:31.576Z,42.10
2023-06-19T10:38:59.834Z,41.50
2023-06-19T10:41:28.749Z,42.00
2023-06-19T10:43:58.932Z,41.60
2023-06-19T10:46:32.396Z,41.50
2023-06-19T10:49:02.617Z,42.10
2023-06-19T10:51:32.817Z,41.40
2023-06-19T10:54:00.984Z,41.60
2023-06-19T10:56:29.321Z,39.80
2023-06-19T10:59:02.137Z,39.20
2023-06-19T11:01:38.124Z,39.60
2023-06-19T11:04:08.070Z,38.60
2023-06-19T11:06:38.960Z,38.60
2023-06-19T11:09:09.176Z,38.60
2023-06-19T11:11:38.912Z,37.70
2023-06-19T11:14:07.782Z,37.60
2023-06-19T11:16:36.548Z,38.30
2023-06-19T11:19:05.282Z,39.40
2023-06-19T11:21:38.444Z,38.80
2023-06-19T11:24:13.136Z,38.20
2023-06-19T11:26:45.094Z,38.60
2023-06-19T11:29:17.506Z,38.90
2023-06-19T11:31:45.881Z,39.00
2023-06-19T11:34:14.105Z,39.60
2023-06-19T11:36:42.548Z,39.60
2023-06-19T11:39:14.793Z,39.60
2023-06-19T11:41:45.558Z,39.70
2023-06-19T11:44:13.756Z,40.00
2023-06-19T11:46:42.129Z,39.80
2023-06-19T11:49:11.596Z,39.90
2023-06-19T11:51:39.774Z,39.60
2023-06-19T11:54:10.576Z,39.40
2023-06-19T11:56:40.750Z,39.40
2023-06-19T11:59:09.311Z,39.40
2023-06-19T12:01:39.920Z,39.10
2023-06-19T12:04:08.928Z,39.40
2023-06-19T12:06:38.487Z,39.30
2023-06-19T12:09:07.227Z,39.00
2023-06-19T12:11:35.502Z,38.90
2023-06-19T12:14:05.069Z,39.20
2023-06-19T12:16:33.376Z,38.80
2023-06-19T12:19:01.645Z,38.80
2023-06-19T12:21:36.264Z,38.90
2023-06-19T12:24:07.899Z,38.80
2023-06-19T12:26:38.419Z,38.30
2023-06-19T12:29:09.024Z,38.10
2023-06-19T12:31:38.220Z,38.40
2023-06-19T12:36:38.884Z,38.10
2023-06-19T12:39:15.768Z,37.90
2023-06-19T12:41:43.982Z,37.80
2023-06-19T12:44:13.750Z,37.20
2023-06-19T12:46:42.074Z,37.70
2023-06-19T12:49:10.417Z,37.40
2023-06-19T12:51:38.581Z,37.30
2023-06-19T12:54:06.892Z,37.40
2023-06-19T12:56:35.100Z,37.20
2023-06-19T12:59:03.317Z,37.20
2023-06-19T13:01:32.932Z,36.90
2023-06-19T13:04:01.355Z,36.70
2023-06-19T13:06:29.809Z,36.50
2023-06-19T13:08:58.005Z,36.40
2023-06-19T13:11:26.185Z,36.30
2023-06-19T13:13:54.364Z,35.60
2023-06-19T13:16:33.569Z,35.50
2023-06-19T13:19:12.260Z,35.80
2023-06-19T13:21:40.734Z,36.10
2023-06-19T13:24:09.192Z,36.20
2023-06-19T13:26:37.906Z,36.30
2023-06-19T13:29:06.088Z,36.30
2023-06-19T13:31:34.846Z,36.70
2023-06-19T13:34:03.063Z,36.50
2023-06-19T13:36:32.863Z,36.50
2023-06-19T13:39:01.020Z,36.40
2023-06-19T13:41:31.989Z,36.70
2023-06-19T13:44:00.457Z,36.50
2023-06-19T13:46:28.892Z,36.30
2023-06-19T13:48:57.165Z,36.50
2023-06-19T13:51:25.987Z,36.50
2023-06-19T13:53:56.020Z,37.10
2023-06-19T13:56:24.646Z,37.10
2023-06-19T13:58:53.228Z,36.50
2023-06-19T14:01:21.834Z,36.40
2023-06-19T14:03:50.138Z,36.40
2023-06-19T14:06:18.328Z,36.10
2023-06-19T14:08:46.532Z,35.90
2023-06-19T14:11:16.077Z,35.80
2023-06-19T14:13:44.281Z,35.20
2023-06-19T14:16:12.496Z,35.30
2023-06-19T14:18:40.728Z,35.00
2023-06-19T14:21:08.937Z,35.30
2023-06-19T14:23:41.383Z,35.30
2023-06-19T14:26:09.629Z,35.60
2023-06-19T14:28:40.610Z,35.20
2023-06-19T14:31:08.991Z,35.20
2023-06-19T14:33:38.321Z,35.10
2023-06-19T14:36:07.268Z,34.80
2023-06-19T14:38:35.666Z,35.00
2023-06-19T14:41:04.364Z,34.80
2023-06-19T14:43:34.196Z,34.80
2023-06-19T14:46:05.377Z,34.80
2023-06-19T14:48:33.713Z,34.80
2023-06-19T14:51:03.053Z,34.80
2023-06-19T14:53:31.264Z,34.80
2023-06-19T14:55:59.489Z,34.50
2023-06-19T14:58:29.826Z,34.70
2023-06-19T15:00:59.305Z,34.50
2023-06-19T15:03:29.011Z,34.30
2023-06-19T15:05:57.271Z,34.30
2023-06-19T15:08:25.535Z,33.90
2023-06-19T15:10:53.832Z,33.30
2023-06-19T15:13:22.006Z,33.20
2023-06-19T15:15:51.908Z,33.40
2023-06-19T15:18:20.414Z,33.40
2023-06-19T15:20:50.224Z,33.40
2023-06-19T15:23:18.440Z,33.30
2023-06-19T15:25:47.014Z,33.30
2023-06-19T15:28:15.220Z,33.10
2023-06-19T15:30:43.441Z,33.20
2023-06-19T15:33:11.715Z,33.20
2023-06-19T15:35:39.927Z,33.00
2023-06-19T15:38:09.627Z,32.80
2023-06-19T15:40:38.633Z,32.70
2023-06-19T15:43:06.755Z,32.80
2023-06-19T15:45:34.928Z,33.00
2023-06-19T15:48:03.639Z,33.70
2023-06-19T15:50:31.936Z,33.70
2023-06-19T15:53:00.172Z,34.00
2023-06-19T15:55:29.751Z,34.10
2023-06-19T15:57:57.985Z,34.10
2023-06-19T16:00:26.684Z,34.70
2023-06-19T16:02:55.243Z,34.00
2023-06-19T16:05:23.563Z,34.00
2023-06-19T16:07:51.746Z,33.90
2023-06-19T16:10:20.280Z,33.90
2023-06-19T16:12:50.433Z,33.90
2023-06-19T16:15:24.992Z,33.80
2023-06-19T16:17:55.072Z,33.90
2023-06-19T16:20:24.207Z,33.90
2023-06-19T16:22:53.334Z,33.80
2023-06-19T16:25:23.760Z,33.70
2023-06-19T16:27:53.726Z,33.80
2023-06-19T16:30:22.182Z,33.70
2023-06-19T16:32:50.553Z,33.70
2023-06-19T16:35:23.328Z,33.90
2023-06-19T16:37:54.635Z,34.10
2023-06-19T16:40:25.254Z,34.60
2023-06-19T16:42:55.211Z,34.50
2023-06-19T16:45:27.502Z,34.90
2023-06-19T16:47:56.265Z,34.30
2023-06-19T16:50:25.236Z,34.20
2023-06-19T16:52:53.478Z,34.20
2023-06-19T16:55:23.697Z,34.20
2023-06-19T16:57:52.170Z,34.00
2023-06-19T17:00:22.633Z,34.50
2023-06-19T17:02:56.083Z,35.50
2023-06-19T17:05:24.448Z,35.50
2023-06-19T17:07:52.686Z,35.50
2023-06-19T17:10:20.930Z,35.60
2023-06-19T17:12:49.132Z,35.70
2023-06-19T17:15:18.434Z,35.50
2023-06-19T17:17:48.098Z,35.70
2023-06-19T17:20:16.380Z,35.80
2023-06-19T17:22:44.566Z,35.80
2023-06-19T17:25:12.731Z,35.80
2023-06-19T17:27:40.931Z,36.00
2023-06-19T17:30:11.591Z,36.10
2023-06-19T17:32:40.023Z,36.20
2023-06-19T17:35:10.993Z,36.40
2023-06-19T17:37:39.301Z,36.50
2023-06-19T17:40:11.388Z,36.60
2023-06-19T17:42:39.743Z,36.60
2023-06-19T17:45:09.063Z,36.70
2023-06-19T17:47:37.505Z,36.90
2023-06-19T17:50:06.625Z,37.00
2023-06-19T17:52:36.274Z,37.00
2023-06-19T17:55:04.724Z,37.00
2023-06-19T17:57:32.922Z,37.10
2023-06-19T18:00:04.168Z,37.10
2023-06-19T18:02:34.917Z,36.70
2023-06-19T18:05:03.421Z,37.10
2023-06-19T18:07:31.610Z,37.00
2023-06-19T18:10:01.246Z,37.30
2023-06-19T18:12:29.462Z,37.40
2023-06-19T18:14:57.653Z,37.50
2023-06-19T18:17:25.870Z,37.70
2023-06-19T18:19:55.044Z,37.70
2023-06-19T18:22:23.099Z,37.90
2023-06-19T18:24:51.378Z,38.20
2023-06-19T18:27:21.041Z,38.20
2023-06-19T18:29:49.257Z,38.20
2023-06-19T18:32:17.477Z,38.50
2023-06-19T18:34:45.635Z,38.50
2023-06-19T18:37:13.820Z,38.50
2023-06-19T18:39:42.023Z,38.70
2023-06-19T18:42:10.500Z,38.90
2023-06-19T18:44:40.063Z,38.90
2023-06-19T18:47:08.541Z,39.10
2023-06-19T18:49:36.695Z,39.20
2023-06-19T18:52:05.365Z,39.30
2023-06-19T18:54:33.562Z,39.50
2023-06-19T18:57:01.762Z,39.50
2023-06-19T18:59:30.107Z,39.60
2023-06-19T19:01:59.801Z,39.70
2023-06-19T19:04:28.457Z,39.70
2023-06-19T19:06:56.648Z,39.80
2023-06-19T19:09:24.831Z,39.90
2023-06-19T19:11:54.109Z,40.00
2023-06-19T19:14:22.090Z,40.00
2023-06-19T19:16:50.355Z,40.00
2023-06-19T19:19:19.946Z,40.10
2023-06-19T19:21:48.127Z,40.20
2023-06-19T19:24:16.343Z,40.30
2023-06-19T19:26:45.108Z,40.40
2023-06-19T19:29:13.298Z,40.40
2023-06-19T19:31:41.563Z,40.50
2023-06-19T19:34:09.987Z,40.60
2023-06-19T19:36:39.570Z,40.50
2023-06-19T19:39:07.799Z,40.60
2023-06-19T19:41:36.015Z,40.60
2023-06-19T19:44:04.344Z,40.80
2023-06-19T19:46:32.554Z,40.70
2023-06-19T19:49:00.886Z,40.60
2023-06-19T19:51:29.071Z,40.70
2023-06-19T19:53:58.654Z,40.80
2023-06-19T19:56:26.820Z,40.90
2023-06-19T19:58:55.032Z,41.10
2023-06-19T20:01:23.226Z,41.30
2023-06-19T20:03:51.591Z,41.30
2023-06-19T20:06:20.099Z,41.60
2023-06-19T20:08:48.285Z,41.60
2023-06-19T20:11:17.884Z,41.90
2023-06-19T20:13:46.070Z,42.00
2023-06-19T20:16:14.312Z,41.90
2023-06-19T20:18:42.496Z,41.80
2023-06-19T20:21:10.905Z,41.80
2023-06-19T20:23:39.079Z,41.80
2023-06-19T20:26:07.274Z,41.70
2023-06-19T20:28:36.831Z,41.70
2023-06-19T20:31:05.074Z,41.70
2023-06-19T20:33:33.225Z,41.60
2023-06-19T20:36:02.216Z,41.70
2023-06-19T20:38:30.465Z,41.60
2023-06-19T20:40:58.656Z,41.70
2023-06-19T20:43:27.926Z,41.70
2023-06-19T20:46:01.992Z,41.70
2023-06-19T20:48:30.484Z,41.70
2023-06-19T20:50:58.810Z,41.80
2023-06-19T20:53:27.838Z,41.80
2023-06-19T20:55:56.050Z,41.60
2023-06-19T20:58:27.707Z,41.60
2023-06-19T21:00:57.451Z,41.70
2023-06-19T21:03:28.243Z,41.80
2023-06-19T21:05:57.788Z,42.00
2023-06-19T21:08:31.198Z,41.90
2023-06-19T21:10:59.932Z,42.00
2023-06-19T21:13:28.399Z,41.90
2023-06-19T21:15:57.961Z,41.90
2023-06-19T21:18:26.141Z,42.00
2023-06-19T21:20:56.831Z,42.00
2023-06-19T21:23:25.339Z,42.10
2023-06-19T21:25:53.766Z,42.00
2023-06-19T21:28:21.956Z,42.10
2023-06-19T21:30:50.176Z,42.10
2023-06-19T21:33:21.529Z,42.10
2023-06-19T21:35:51.952Z,42.10
2023-06-19T21:38:20.262Z,42.20
2023-06-19T21:40:48.434Z,42.10
2023-06-19T21:43:16.661Z,42.20
2023-06-19T21:45:44.872Z,42.20
2023-06-19T21:48:13.113Z,42.20
2023-06-19T21:50:42.708Z,42.30
2023-06-19T21:53:10.890Z,42.30
2023-06-19T21:55:39.109Z,42.30
2023-06-19T21:58:07.262Z,42.40
2023-06-19T22:00:35.467Z,42.40
2023-06-19T22:03:03.980Z,42.40
2023-06-19T22:05:32.261Z,42.40
2023-06-19T22:08:01.799Z,42.40
2023-06-19T22:10:30.033Z,42.40
2023-06-19T22:12:58.532Z,42.50
2023-06-19T22:15:26.844Z,42.50
2023-06-19T22:17:55.111Z,42.50
2023-06-19T22:20:23.668Z,42.50
2023-06-19T22:22:52.159Z,42.50
2023-06-19T22:25:21.727Z,42.50
2023-06-19T22:27:51.470Z,42.60
2023-06-19T22:30:19.706Z,42.70
2023-06-19T22:32:48.081Z,42.70
2023-06-19T22:35:16.242Z,42.70
2023-06-19T22:37:45.017Z,42.80
2023-06-19T22:40:14.040Z,42.70
2023-06-19T22:42:43.752Z,42.80
2023-06-19T22:45:12.753Z,42.80
2023-06-19T22:47:41.706Z,42.90
2023-06-19T22:50:11.769Z,42.90
2023-06-19T22:52:40.323Z,43.50
2023-06-19T22:55:09.021Z,42.80
2023-06-19T22:57:37.665Z,42.80
2023-06-19T23:00:11.343Z,42.80
2023-06-19T23:02:39.673Z,42.80
2023-06-19T23:05:09.125Z,43.00
2023-06-19T23:07:37.185Z,43.00
2023-06-19T23:10:06.406Z,43.10
2023-06-19T23:12:34.587Z,43.10
2023-06-19T23:15:02.792Z,43.10
2023-06-19T23:17:32.391Z,43.20
2023-06-19T23:20:03.290Z,43.50
2023-06-19T23:22:31.518Z,43.70
2023-06-19T23:25:01.550Z,43.80
2023-06-19T23:27:29.962Z,43.80
2023-06-19T23:29:58.169Z,43.80
2023-06-19T23:32:26.610Z,43.90
2023-06-19T23:34:56.238Z,43.80
2023-06-19T23:37:24.406Z,43.90
2023-06-19T23:39:52.577Z,44.60
2023-06-19T23:42:20.733Z,43.90
2023-06-19T23:44:48.938Z,43.90
2023-06-19T23:47:17.102Z,44.00
2023-06-19T23:49:45.334Z,44.00
2023-06-19T23:52:15.811Z,44.00
2023-06-19T23:54:44.933Z,44.10
2023-06-19T23:57:13.116Z,44.10
2023-06-19T23:59:42.137Z,44.10
